createdAt,value
2022-07-27T00:01:11.081Z,64.16
2022-07-27T00:03:39.254Z,63.65
2022-07-27T00:06:07.925Z,64.31
2022-07-27T00:08:35.858Z,65.15
2022-07-27T00:11:03.889Z,65.77
2022-07-27T00:13:32.699Z,65.42
2022-07-27T00:16:00.738Z,65.55
2022-07-27T00:18:30.227Z,66.16
2022-07-27T00:20:58.109Z,66.88
2022-07-27T00:23:26.008Z,67.02
2022-07-27T00:25:53.916Z,66.86
2022-07-27T00:28:21.794Z,67.51
2022-07-27T00:30:49.752Z,67.99
2022-07-27T00:33:17.745Z,68.77
2022-07-27T00:35:47.203Z,69.46
2022-07-27T00:38:16.539Z,68.39
2022-07-27T00:40:45.221Z,66.51
2022-07-27T00:43:13.599Z,65.14
2022-07-27T00:45:41.762Z,64.98
2022-07-27T00:48:09.837Z,64.48
2022-07-27T00:50:38.754Z,64.24
2022-07-27T00:53:09.429Z,64.86
2022-07-27T00:55:38.010Z,64.15
2022-07-27T00:58:08.728Z,64.28
2022-07-27T01:00:38.503Z,64.30
2022-07-27T01:03:09.023Z,64.30
2022-07-27T01:05:43.077Z,63.85
2022-07-27T01:08:14.302Z,64.64
2022-07-27T01:10:43.729Z,64.74
2022-07-27T01:13:13.416Z,63.93
2022-07-27T01:15:43.084Z,63.36
2022-07-27T01:18:27.733Z,63.20
2022-07-27T01:20:55.858Z,63.71
2022-07-27T01:23:25.648Z,64.19
2022-07-27T01:25:54.054Z,63.81
2022-07-27T01:28:22.429Z,63.45
2022-07-27T01:30:50.414Z,63.07
2022-07-27T01:33:18.382Z,63.03
2022-07-27T01:35:46.335Z,63.51
2022-07-27T01:38:14.258Z,63.45
2022-07-27T01:40:43.534Z,62.89
2022-07-27T01:43:11.425Z,63.37
2022-07-27T01:45:40.993Z,63.25
2022-07-27T01:48:08.929Z,63.79
2022-07-27T01:50:36.983Z,63.77
2022-07-27T01:53:04.952Z,63.68
2022-07-27T01:55:39.129Z,62.50
2022-07-27T01:58:09.311Z,63.75
2022-07-27T02:00:37.561Z,64.12
2022-07-27T02:03:06.729Z,63.44
2022-07-27T02:05:34.802Z,63.20
2022-07-27T02:08:02.765Z,64.12
2022-07-27T02:10:30.709Z,64.36
2022-07-27T02:12:57.818Z,64.51
2022-07-27T02:15:33.872Z,65.66
2022-07-27T02:18:32.880Z,65.56
2022-07-27T02:21:00.233Z,66.24
2022-07-27T02:23:28.137Z,66.41
2022-07-27T02:25:55.997Z,66.24
2022-07-27T02:28:23.992Z,66.66
2022-07-27T02:30:53.261Z,66.80
2022-07-27T02:33:21.239Z,66.86
2022-07-27T02:35:49.216Z,67.28
2022-07-27T02:38:17.070Z,67.61
2022-07-27T02:40:45.284Z,67.53
2022-07-27T02:43:14.090Z,67.85
2022-07-27T02:45:42.010Z,68.11
2022-07-27T02:48:11.285Z,68.81
2022-07-27T02:50:39.205Z,69.12
2022-07-27T02:53:07.093Z,69.39
2022-07-27T02:55:34.996Z,69.97
2022-07-27T02:58:02.880Z,70.01
2022-07-27T03:00:31.016Z,69.81
2022-07-27T03:02:59.023Z,69.85
2022-07-27T03:05:28.282Z,70.38
2022-07-27T03:07:56.168Z,70.77
2022-07-27T03:10:24.032Z,72.01
2022-07-27T03:12:51.997Z,72.29
2022-07-27T03:15:19.900Z,72.82
2022-07-27T03:17:47.773Z,72.52
2022-07-27T03:20:16.073Z,73.04
2022-07-27T03:22:45.318Z,72.45
2022-07-27T03:25:13.670Z,72.19
2022-07-27T03:27:41.577Z,72.54
2022-07-27T03:30:10.297Z,73.75
2022-07-27T03:32:38.203Z,74.53
2022-07-27T03:35:07.102Z,75.34
2022-07-27T03:37:35.677Z,75.26
2022-07-27T03:40:05.331Z,75.20
2022-07-27T03:42:33.241Z,74.79
2022-07-27T03:45:01.126Z,74.62
2022-07-27T03:47:29.028Z,74.17
2022-07-27T03:49:56.911Z,73.96
2022-07-27T03:52:24.819Z,73.74
2022-07-27T03:54:52.740Z,72.62
2022-07-27T03:57:21.996Z,72.17
2022-07-27T03:59:50.086Z,72.25
2022-07-27T04:02:18.029Z,72.83
2022-07-27T04:04:45.940Z,72.84
2022-07-27T04:07:13.880Z,72.54
2022-07-27T04:09:41.825Z,71.74
2022-07-27T04:14:40.981Z,72.13
2022-07-27T04:17:08.943Z,71.43
2022-07-27T04:19:36.859Z,70.94
2022-07-27T04:22:04.836Z,70.80
2022-07-27T04:24:32.704Z,70.24
2022-07-27T04:27:00.594Z,69.57
2022-07-27T04:29:28.773Z,68.88
2022-07-27T04:31:58.070Z,68.09
2022-07-27T04:34:26.037Z,67.45
2022-07-27T04:36:53.943Z,67.34
2022-07-27T04:39:21.912Z,65.94
2022-07-27T04:41:49.870Z,65.08
2022-07-27T04:44:17.725Z,64.83
2022-07-27T04:46:45.672Z,65.29
2022-07-27T04:49:15.278Z,65.00
2022-07-27T04:51:45.040Z,64.39
2022-07-27T04:54:13.532Z,64.64
2022-07-27T04:56:42.654Z,64.90
2022-07-27T04:59:11.715Z,63.91
2022-07-27T05:01:39.900Z,62.57
2022-07-27T05:04:07.865Z,61.18
2022-07-27T05:06:37.277Z,62.09
2022-07-27T05:09:05.213Z,62.10
2022-07-27T05:11:33.080Z,61.15
2022-07-27T05:14:00.984Z,61.05
2022-07-27T05:16:29.338Z,60.59
2022-07-27T05:18:57.677Z,58.66
2022-07-27T05:21:25.768Z,58.51
2022-07-27T05:23:55.026Z,57.53
2022-07-27T05:26:23.341Z,56.86
2022-07-27T05:28:51.335Z,56.88
2022-07-27T05:31:19.868Z,55.02
2022-07-27T05:33:49.824Z,53.55
2022-07-27T05:36:19.368Z,53.00
2022-07-27T05:38:47.278Z,51.42
2022-07-27T05:41:16.660Z,51.67
2022-07-27T05:43:44.682Z,51.30
2022-07-27T05:46:12.692Z,51.57
2022-07-27T05:48:40.699Z,50.41
2022-07-27T05:51:09.510Z,50.69
2022-07-27T05:53:37.488Z,51.12
2022-07-27T05:56:07.913Z,50.46
2022-07-27T05:58:37.426Z,49.58
2022-07-27T06:01:05.480Z,51.03
2022-07-27T06:03:34.006Z,49.71
2022-07-27T06:06:19.402Z,48.28
2022-07-27T06:08:47.333Z,48.26
2022-07-27T06:11:15.521Z,47.67
2022-07-27T06:13:44.960Z,48.03
2022-07-27T06:16:13.013Z,48.00
2022-07-27T06:18:41.019Z,48.45
2022-07-27T06:21:09.226Z,47.66
2022-07-27T06:23:37.317Z,48.55
2022-07-27T06:26:05.340Z,47.86
2022-07-27T06:28:33.497Z,47.83
2022-07-27T06:31:02.856Z,48.18
2022-07-27T06:33:31.764Z,47.99
2022-07-27T06:36:02.089Z,47.06
2022-07-27T06:38:30.499Z,45.82
2022-07-27T06:40:58.494Z,47.38
2022-07-27T06:43:28.036Z,47.78
2022-07-27T06:45:56.176Z,46.75
2022-07-27T06:48:26.352Z,45.90
2022-07-27T06:50:54.428Z,46.16
2022-07-27T06:53:22.799Z,44.74
2022-07-27T06:55:51.033Z,45.34
2022-07-27T06:58:19.808Z,45.83
2022-07-27T07:00:48.209Z,45.85
2022-07-27T07:03:16.328Z,44.89
2022-07-27T07:05:47.261Z,44.58
2022-07-27T07:08:15.707Z,44.34
2022-07-27T07:10:46.383Z,45.29
2022-07-27T07:13:14.586Z,43.67
2022-07-27T07:15:44.245Z,43.44
2022-07-27T07:18:13.529Z,43.77
2022-07-27T07:20:42.385Z,43.55
2022-07-27T07:23:12.455Z,44.53
2022-07-27T07:25:40.908Z,43.56
2022-07-27T07:28:09.769Z,42.19
2022-07-27T07:30:37.873Z,41.57
2022-07-27T07:33:06.134Z,41.56
2022-07-27T07:35:34.192Z,41.49
2022-07-27T07:38:02.125Z,41.28
2022-07-27T07:40:46.757Z,41.49
2022-07-27T07:43:15.279Z,41.32
2022-07-27T07:45:51.500Z,39.73
2022-07-27T07:48:21.484Z,39.94
2022-07-27T07:50:52.404Z,40.88
2022-07-27T07:53:22.431Z,39.96
2022-07-27T07:55:52.209Z,39.81
2022-07-27T07:58:20.512Z,38.65
2022-07-27T08:00:48.962Z,37.82
2022-07-27T08:03:17.104Z,36.47
2022-07-27T08:05:45.187Z,35.65
2022-07-27T08:08:13.392Z,34.89
2022-07-27T08:10:41.293Z,35.40
2022-07-27T08:13:10.934Z,36.00
2022-07-27T08:15:38.888Z,35.58
2022-07-27T08:18:07.279Z,35.30
2022-07-27T08:20:35.469Z,36.59
2022-07-27T08:23:03.776Z,37.10
2022-07-27T08:25:32.125Z,37.04
2022-07-27T08:28:00.219Z,35.92
2022-07-27T08:30:33.738Z,35.49
2022-07-27T08:33:03.772Z,36.36
2022-07-27T08:35:32.859Z,36.01
2022-07-27T08:38:01.916Z,36.46
2022-07-27T08:40:46.825Z,35.77
2022-07-27T08:43:23.772Z,33.90
2022-07-27T08:45:59.050Z,34.48
2022-07-27T08:48:27.892Z,35.31
2022-07-27T08:50:56.312Z,34.27
2022-07-27T08:53:24.701Z,34.59
2022-07-27T08:55:52.830Z,32.69
2022-07-27T08:58:21.013Z,33.38
2022-07-27T09:00:50.348Z,33.55
2022-07-27T09:03:22.204Z,34.39
2022-07-27T09:05:53.088Z,32.42
2022-07-27T09:08:24.465Z,33.84
2022-07-27T09:10:54.690Z,32.23
2022-07-27T09:13:25.049Z,32.00
2022-07-27T09:16:17.024Z,32.95
2022-07-27T09:18:44.222Z,32.80
2022-07-27T09:21:15.244Z,31.86
2022-07-27T09:23:44.565Z,31.70
2022-07-27T09:26:31.299Z,30.99
2022-07-27T09:29:02.740Z,31.64
2022-07-27T09:31:32.360Z,31.59
2022-07-27T09:34:03.602Z,31.89
2022-07-27T09:36:32.250Z,31.58
2022-07-27T09:39:12.893Z,30.60
2022-07-27T09:41:43.540Z,31.34
2022-07-27T09:44:31.309Z,30.97
2022-07-27T09:47:00.664Z,30.16
2022-07-27T09:49:32.248Z,30.00
2022-07-27T09:52:02.704Z,30.80
2022-07-27T09:54:44.436Z,30.70
2022-07-27T09:57:12.491Z,30.34
2022-07-27T09:59:40.565Z,31.26
2022-07-27T10:02:09.245Z,30.18
2022-07-27T10:04:39.020Z,29.60
2022-07-27T10:07:12.858Z,29.69
2022-07-27T10:09:42.001Z,29.40
2022-07-27T10:12:10.700Z,28.91
2022-07-27T10:14:38.655Z,29.67
2022-07-27T10:17:10.695Z,29.85
2022-07-27T10:19:46.825Z,29.20
2022-07-27T10:22:15.240Z,28.44
2022-07-27T10:24:43.677Z,29.56
2022-07-27T10:27:22.641Z,28.93
2022-07-27T10:29:51.833Z,29.38
2022-07-27T10:32:26.756Z,28.24
2022-07-27T10:34:56.162Z,28.14
2022-07-27T10:37:26.324Z,28.19
2022-07-27T10:40:16.075Z,27.83
2022-07-27T10:42:47.821Z,26.97
2022-07-27T10:45:20.423Z,26.49
2022-07-27T10:47:50.526Z,27.28
2022-07-27T10:50:30.131Z,27.46
2022-07-27T10:53:01.278Z,28.11
2022-07-27T10:55:48.470Z,27.93
2022-07-27T10:58:52.772Z,27.55
2022-07-27T11:01:22.773Z,26.87
2022-07-27T11:03:56.464Z,27.15
2022-07-27T11:06:34.719Z,25.95
2022-07-27T11:11:59.097Z,25.50
2022-07-27T11:14:31.671Z,26.68
2022-07-27T11:17:24.264Z,25.52
2022-07-27T11:19:55.986Z,25.46
2022-07-27T11:23:14.091Z,25.05
2022-07-27T11:25:20.732Z,24.95
2022-07-27T11:27:49.573Z,26.19
2022-07-27T11:30:27.948Z,26.71
2022-07-27T11:32:57.171Z,26.99
2022-07-27T11:35:25.822Z,26.58
2022-07-27T11:38:01.846Z,26.79
2022-07-27T11:43:36.913Z,25.69
2022-07-27T11:46:16.044Z,24.60
2022-07-27T11:49:09.025Z,24.50
2022-07-27T11:51:40.451Z,23.33
2022-07-27T11:54:11.947Z,23.47
2022-07-27T11:56:43.392Z,24.13
2022-07-27T11:59:17.263Z,23.77
2022-07-27T12:01:48.061Z,23.91
2022-07-27T12:04:20.068Z,24.53
2022-07-27T12:06:55.297Z,23.98
2022-07-27T12:09:25.173Z,23.59
2022-07-27T12:11:59.368Z,24.50
2022-07-27T12:14:37.068Z,25.46
2022-07-27T12:17:29.161Z,25.05
2022-07-27T12:20:00.434Z,25.44
2022-07-27T12:22:32.179Z,26.20
2022-07-27T12:25:05.717Z,26.29
2022-07-27T12:27:38.320Z,26.31
2022-07-27T12:30:11.339Z,25.92
2022-07-27T12:32:42.143Z,27.00
2022-07-27T12:35:25.184Z,26.27
2022-07-27T12:38:00.868Z,25.52
2022-07-27T12:40:31.301Z,26.25
2022-07-27T12:43:01.317Z,26.07
2022-07-27T12:45:34.668Z,26.41
2022-07-27T12:48:11.105Z,25.96
2022-07-27T12:50:41.537Z,25.81
2022-07-27T12:53:10.779Z,25.84
2022-07-27T12:55:40.305Z,26.67
2022-07-27T12:58:10.707Z,26.98
2022-07-27T13:00:39.553Z,26.28
2022-07-27T13:03:08.911Z,26.45
2022-07-27T13:05:37.259Z,25.90
2022-07-27T13:08:05.648Z,27.05
2022-07-27T13:10:34.019Z,26.87
2022-07-27T13:13:03.527Z,27.10
2022-07-27T13:15:31.508Z,26.83
2022-07-27T13:17:59.570Z,26.89
2022-07-27T13:20:28.462Z,27.36
2022-07-27T13:22:56.585Z,27.24
2022-07-27T13:25:24.971Z,27.79
2022-07-27T13:27:52.934Z,27.79
2022-07-27T13:30:23.044Z,27.91
2022-07-27T13:32:50.986Z,28.45
2022-07-27T13:35:18.925Z,29.25
2022-07-27T13:37:46.958Z,29.37
2022-07-27T13:40:15.856Z,27.69
2022-07-27T13:42:43.768Z,27.52
2022-07-27T13:45:12.497Z,26.98
2022-07-27T13:47:42.522Z,26.58
2022-07-27T13:50:18.349Z,26.97
2022-07-27T13:52:48.515Z,27.63
2022-07-27T13:55:17.621Z,29.58
2022-07-27T13:57:46.623Z,30.00
2022-07-27T14:00:16.103Z,29.66
2022-07-27T14:02:46.154Z,30.59
2022-07-27T14:05:14.825Z,30.52
2022-07-27T14:07:44.295Z,30.20
2022-07-27T14:10:31.034Z,30.24
2022-07-27T14:13:07.394Z,30.21
2022-07-27T14:15:53.209Z,29.53
2022-07-27T14:18:25.964Z,29.69
2022-07-27T14:20:54.511Z,28.83
2022-07-27T14:23:22.763Z,29.53
2022-07-27T14:25:50.794Z,29.53
2022-07-27T14:28:19.546Z,28.54
2022-07-27T14:30:49.569Z,28.85
2022-07-27T14:33:17.885Z,28.89
2022-07-27T14:35:48.652Z,29.45
2022-07-27T14:38:27.873Z,29.79
2022-07-27T14:40:59.594Z,30.70
2022-07-27T14:43:28.592Z,33.67
2022-07-27T14:45:56.522Z,35.70
2022-07-27T14:48:37.109Z,36.86
2022-07-27T14:51:13.801Z,37.11
2022-07-27T14:53:41.770Z,37.34
2022-07-27T14:56:09.702Z,37.55
2022-07-27T14:58:37.606Z,37.85
2022-07-27T15:01:05.653Z,38.46
2022-07-27T15:03:33.624Z,38.83
2022-07-27T15:06:01.541Z,39.29
2022-07-27T15:08:30.864Z,39.52
2022-07-27T15:10:58.814Z,39.28
2022-07-27T15:13:26.833Z,39.54
2022-07-27T15:15:56.216Z,39.67
2022-07-27T15:18:24.230Z,39.70
2022-07-27T15:20:52.236Z,39.42
2022-07-27T15:23:20.201Z,39.30
2022-07-27T15:25:49.780Z,39.10
2022-07-27T15:28:17.771Z,38.74
2022-07-27T15:30:45.678Z,38.66
2022-07-27T15:33:13.623Z,38.32
2022-07-27T15:35:41.527Z,38.01
2022-07-27T15:38:09.471Z,37.83
2022-07-27T15:40:41.714Z,38.03
2022-07-27T15:43:13.160Z,38.28
2022-07-27T15:45:42.158Z,38.29
2022-07-27T15:48:12.459Z,38.46
2022-07-27T15:50:42.474Z,38.68
2022-07-27T15:53:10.966Z,38.93
2022-07-27T15:55:39.321Z,39.06
2022-07-27T15:58:07.807Z,39.56
2022-07-27T16:00:41.126Z,39.20
2022-07-27T16:03:10.182Z,39.34
2022-07-27T16:05:38.614Z,39.46
2022-07-27T16:08:09.102Z,39.72
2022-07-27T16:10:37.570Z,39.50
2022-07-27T16:13:06.089Z,39.68
2022-07-27T16:15:52.010Z,39.59
2022-07-27T16:18:21.390Z,39.09
2022-07-27T16:20:49.410Z,39.46
2022-07-27T16:23:18.719Z,39.18
2022-07-27T16:26:08.105Z,39.56
2022-07-27T16:28:38.805Z,39.54
2022-07-27T16:31:08.944Z,39.39
2022-07-27T16:33:38.738Z,38.78
2022-07-27T16:36:08.645Z,38.62
2022-07-27T16:38:37.038Z,38.52
2022-07-27T16:41:07.345Z,38.22
2022-07-27T16:43:38.180Z,38.19
2022-07-27T16:46:07.945Z,38.30
2022-07-27T16:48:42.343Z,38.41
2022-07-27T16:51:12.848Z,38.90
2022-07-27T16:53:42.553Z,38.90
2022-07-27T16:56:11.413Z,38.49
2022-07-27T16:58:40.032Z,37.56
2022-07-27T17:01:08.775Z,38.38
2022-07-27T17:03:37.610Z,38.09
2022-07-27T17:06:07.512Z,37.86
2022-07-27T17:08:36.454Z,38.22
2022-07-27T17:11:05.387Z,37.88
2022-07-27T17:13:35.040Z,38.54
2022-07-27T17:16:03.947Z,38.43
2022-07-27T17:18:37.155Z,39.23
2022-07-27T17:21:09.584Z,39.79
2022-07-27T17:23:39.854Z,40.14
2022-07-27T17:26:08.889Z,40.91
2022-07-27T17:28:39.382Z,41.67
2022-07-27T17:31:09.718Z,42.37
2022-07-27T17:33:38.331Z,42.63
2022-07-27T17:36:14.243Z,43.44
2022-07-27T17:38:42.932Z,43.46
2022-07-27T17:41:10.851Z,44.23
2022-07-27T17:43:39.528Z,44.87
2022-07-27T17:46:07.922Z,44.93
2022-07-27T17:48:35.967Z,44.70
2022-07-27T17:51:04.444Z,45.63
2022-07-27T17:53:34.422Z,45.95
2022-07-27T17:56:02.898Z,46.30
2022-07-27T17:58:30.921Z,47.19
2022-07-27T18:00:59.380Z,47.69
2022-07-27T18:03:27.584Z,48.13
2022-07-27T18:05:55.685Z,48.55
2022-07-27T18:08:24.572Z,49.66
2022-07-27T18:10:54.049Z,49.69
2022-07-27T18:13:21.993Z,49.62
2022-07-27T18:15:50.595Z,50.12
2022-07-27T18:18:20.536Z,50.73
2022-07-27T18:20:50.241Z,50.82
2022-07-27T18:23:18.285Z,50.93
2022-07-27T18:25:47.039Z,51.15
2022-07-27T18:28:19.369Z,50.93
2022-07-27T18:30:49.351Z,51.46
2022-07-27T18:33:17.878Z,52.47
2022-07-27T18:35:47.113Z,52.50
2022-07-27T18:38:16.804Z,52.36
2022-07-27T18:40:47.189Z,52.41
2022-07-27T18:43:17.968Z,52.22
2022-07-27T18:45:46.027Z,51.98
2022-07-27T18:48:14.077Z,51.88
2022-07-27T18:50:42.145Z,52.05
2022-07-27T18:53:10.398Z,52.25
2022-07-27T18:55:38.833Z,53.09
2022-07-27T18:58:07.079Z,53.09
2022-07-27T19:00:36.513Z,53.42
2022-07-27T19:03:04.932Z,53.58
2022-07-27T19:05:41.576Z,53.83
2022-07-27T19:08:12.881Z,53.67
2022-07-27T19:10:42.181Z,53.29
2022-07-27T19:13:10.625Z,52.60
2022-07-27T19:15:40.447Z,52.50
2022-07-27T19:18:09.145Z,51.59
2022-07-27T19:20:37.747Z,51.70
2022-07-27T19:23:05.895Z,51.53
2022-07-27T19:25:34.694Z,51.42
2022-07-27T19:28:02.850Z,51.03
2022-07-27T19:30:31.030Z,51.52
2022-07-27T19:33:00.425Z,51.60
2022-07-27T19:35:28.640Z,51.77
2022-07-27T19:37:56.668Z,52.15
2022-07-27T19:43:12.520Z,52.71
2022-07-27T19:45:41.514Z,52.74
2022-07-27T19:48:12.234Z,52.77
2022-07-27T19:50:40.842Z,52.90
2022-07-27T19:53:09.200Z,53.55
2022-07-27T19:55:37.221Z,53.54
2022-07-27T19:58:05.427Z,53.53
2022-07-27T20:00:34.401Z,54.12
2022-07-27T20:03:03.267Z,54.77
2022-07-27T20:05:32.945Z,54.33
2022-07-27T20:08:00.959Z,54.84
2022-07-27T20:10:28.905Z,55.13
2022-07-27T20:12:56.815Z,55.45
2022-07-27T20:15:26.206Z,56.06
2022-07-27T20:17:54.125Z,56.25
2022-07-27T20:20:22.005Z,56.76
2022-07-27T20:22:51.534Z,57.28
2022-07-27T20:25:20.228Z,57.91
2022-07-27T20:27:48.482Z,58.53
2022-07-27T20:30:18.120Z,58.49
2022-07-27T20:32:46.903Z,58.78
2022-07-27T21:17:09.741Z,64.65
2022-07-27T21:19:39.017Z,64.14
2022-07-27T21:22:06.966Z,64.65
2022-07-27T21:24:34.948Z,64.26
2022-07-27T21:27:05.076Z,64.59
2022-07-27T21:29:33.204Z,64.43
2022-07-27T21:32:01.165Z,64.44
2022-07-27T21:34:29.085Z,63.48
2022-07-27T21:36:58.398Z,63.20
2022-07-27T21:39:28.853Z,63.49
2022-07-27T21:42:01.710Z,63.78
2022-07-27T21:44:30.128Z,64.35
2022-07-27T21:46:58.209Z,64.48
2022-07-27T21:49:34.150Z,64.05
2022-07-27T21:52:04.187Z,63.82
2022-07-27T21:54:32.117Z,64.44
2022-07-27T21:57:00.035Z,63.13
2022-07-27T21:59:28.043Z,63.22
2022-07-27T22:01:55.971Z,62.51
2022-07-27T22:04:23.985Z,63.38
2022-07-27T22:06:51.957Z,63.04
2022-07-27T22:09:21.246Z,63.08
2022-07-27T22:11:49.154Z,63.06
2022-07-27T22:14:17.930Z,63.30
2022-07-27T22:16:46.158Z,63.63
2022-07-27T22:19:14.184Z,63.75
2022-07-27T22:21:42.086Z,63.51
2022-07-27T22:24:10.339Z,63.91
2022-07-27T22:26:40.035Z,63.88
2022-07-27T22:29:07.973Z,63.56
2022-07-27T22:31:35.986Z,64.05
2022-07-27T22:34:03.997Z,63.71
2022-07-27T22:36:32.531Z,63.89
2022-07-27T22:39:00.451Z,64.27
2022-07-27T22:41:28.504Z,63.56
2022-07-27T22:43:57.803Z,62.98
2022-07-27T22:46:26.079Z,63.46
2022-07-27T22:48:54.085Z,62.94
2022-07-27T22:51:22.072Z,63.56
2022-07-27T22:53:49.952Z,63.18
2022-07-27T22:56:18.261Z,63.05
2022-07-27T22:58:46.169Z,63.83
2022-07-27T23:01:41.627Z,63.50
2022-07-27T23:04:03.483Z,65.17
2022-07-27T23:06:31.397Z,65.57
2022-07-27T23:08:59.313Z,66.60
2022-07-27T23:11:27.221Z,67.00
2022-07-27T23:13:55.172Z,66.91
2022-07-27T23:16:24.553Z,67.43
2022-07-27T23:18:52.665Z,67.14
2022-07-27T23:21:20.698Z,67.26
2022-07-27T23:23:51.055Z,67.55
2022-07-27T23:26:23.147Z,67.48
2022-07-27T23:28:54.017Z,66.91
2022-07-27T23:31:22.036Z,66.86
2022-07-27T23:33:51.508Z,67.38
2022-07-27T23:36:19.452Z,66.68
2022-07-27T23:38:47.684Z,66.53
2022-07-27T23:41:17.028Z,67.02
2022-07-27T23:43:45.074Z,66.83
2022-07-27T23:46:13.094Z,65.84
2022-07-27T23:48:41.121Z,66.19
2022-07-27T23:51:10.465Z,66.11
2022-07-27T23:53:38.369Z,67.53
2022-07-27T23:56:06.644Z,68.51
2022-07-27T23:58:34.524Z,69.62
